createdAt,value
2019-02-05T00:00:59.665Z,5.37
2019-02-05T00:06:03.556Z,5.23
2019-02-05T00:11:07.369Z,5.50
2019-02-05T00:16:11.093Z,4.73
2019-02-05T00:21:15.217Z,5.40
2019-02-05T00:26:19.243Z,4.23
2019-02-05T00:31:22.932Z,5.03
2019-02-05T00:36:27.237Z,4.60
2019-02-05T00:41:31.157Z,4.57
2019-02-05T00:46:34.873Z,4.43
2019-02-05T00:51:38.568Z,4.17
2019-02-05T00:56:42.228Z,4.43
2019-02-05T01:01:46.224Z,3.80
2019-02-05T01:06:49.898Z,4.37
2019-02-05T01:11:53.623Z,4.20
2019-02-05T01:16:57.249Z,3.80
2019-02-05T01:22:01.012Z,4.37
2019-02-05T01:27:05.076Z,4.27
2019-02-05T01:32:08.825Z,3.87
2019-02-05T01:37:12.989Z,3.77
2019-02-05T01:42:16.640Z,3.73
2019-02-05T01:47:20.285Z,3.87
2019-02-05T01:52:23.948Z,3.70
2019-02-05T01:57:27.638Z,3.90
2019-02-05T02:02:32.032Z,3.50
2019-02-05T02:07:35.755Z,3.50
2019-02-05T02:12:39.504Z,3.30
2019-02-05T02:17:43.118Z,3.70
2019-02-05T02:22:46.850Z,3.07
2019-02-05T02:27:51.229Z,3.30
2019-02-05T02:32:55.140Z,3.50
2019-02-05T02:37:58.877Z,3.57
2019-02-05T02:43:02.591Z,3.10
2019-02-05T02:48:06.313Z,3.67
2019-02-05T02:53:10.056Z,3.87
2019-02-05T02:58:13.790Z,4.10
2019-02-05T03:03:17.490Z,3.30
2019-02-05T03:08:21.245Z,3.50
2019-02-05T03:13:24.984Z,3.87
2019-02-05T03:18:29.011Z,3.73
2019-02-05T03:23:32.849Z,3.60
2019-02-05T03:28:36.572Z,3.10
2019-02-05T03:33:40.600Z,3.40
2019-02-05T03:38:44.308Z,3.00
2019-02-05T03:43:48.078Z,3.57
2019-02-05T03:48:51.789Z,3.50
2019-02-05T03:54:18.008Z,3.27
2019-02-05T03:59:57.262Z,3.17
2019-02-05T04:05:34.640Z,3.07
2019-02-05T04:11:03.316Z,2.70
2019-02-05T04:16:51.708Z,3.47
2019-02-05T04:22:09.382Z,3.00
2019-02-05T04:27:47.288Z,2.60
2019-02-05T04:32:58.919Z,3.30
2019-02-05T04:38:46.922Z,3.00
2019-02-05T04:44:20.393Z,2.63
2019-02-05T04:49:56.439Z,3.23
2019-02-05T04:55:27.070Z,2.63
2019-02-05T05:00:54.250Z,3.20
2019-02-05T05:06:21.436Z,2.80
2019-02-05T05:11:25.096Z,3.37
2019-02-05T05:16:29.164Z,3.63
2019-02-05T05:21:33.362Z,3.47
2019-02-05T05:26:37.086Z,3.70
2019-02-05T05:31:40.961Z,3.43
2019-02-05T05:36:50.180Z,3.03
2019-02-05T05:41:54.042Z,3.43
2019-02-05T05:46:57.931Z,3.30
2019-02-05T05:52:01.578Z,3.70
2019-02-05T05:57:05.360Z,3.70
2019-02-05T06:02:09.126Z,4.40
2019-02-05T06:07:12.960Z,4.37
2019-02-05T06:12:16.801Z,4.90
2019-02-05T06:17:20.937Z,5.20
2019-02-05T06:22:24.672Z,6.50
2019-02-05T06:27:28.413Z,8.37
2019-02-05T06:32:32.191Z,12.17
2019-02-05T06:37:36.267Z,12.20
2019-02-05T06:42:40.036Z,14.30
2019-02-05T06:47:44.083Z,14.13
2019-02-05T06:52:47.877Z,12.70
2019-02-05T06:57:51.611Z,11.60
2019-02-05T07:02:56.622Z,13.53
2019-02-05T07:08:00.411Z,12.80
2019-02-05T07:13:04.557Z,14.23
2019-02-05T07:18:08.852Z,13.93
2019-02-05T07:23:13.887Z,15.80
2019-02-05T07:28:17.889Z,17.60
2019-02-05T07:33:21.961Z,18.43
2019-02-05T07:38:28.000Z,19.93
2019-02-05T07:43:32.024Z,18.13
2019-02-05T07:48:36.215Z,15.87
2019-02-05T07:53:40.164Z,14.50
2019-02-05T07:58:43.996Z,13.67
2019-02-05T08:03:48.199Z,10.87
2019-02-05T08:08:51.966Z,9.70
2019-02-05T08:13:55.725Z,9.97
2019-02-05T08:18:59.457Z,9.00
2019-02-05T08:24:03.381Z,8.27
2019-02-05T08:29:08.023Z,7.43
2019-02-05T08:34:11.833Z,7.30
2019-02-05T08:39:17.899Z,7.87
2019-02-05T08:44:21.395Z,7.77
2019-02-05T08:49:28.629Z,7.03
2019-02-05T08:54:33.167Z,7.13
2019-02-05T08:59:38.064Z,6.00
2019-02-05T09:04:41.869Z,6.67
2019-02-05T09:09:45.789Z,5.70
2019-02-05T09:14:49.780Z,5.50
2019-02-05T09:19:53.585Z,6.07
2019-02-05T09:24:57.391Z,6.20
2019-02-05T09:30:01.250Z,6.10
2019-02-05T09:35:05.992Z,5.60
2019-02-05T09:40:13.417Z,5.77
2019-02-05T09:45:17.592Z,5.10
2019-02-05T09:50:21.561Z,5.03
2019-02-05T09:55:25.312Z,5.07
2019-02-05T10:00:31.822Z,4.53
2019-02-05T10:05:35.879Z,4.50
2019-02-05T10:10:39.969Z,4.10
2019-02-05T10:15:43.676Z,4.50
2019-02-05T10:20:47.458Z,5.43
2019-02-05T10:25:51.290Z,5.20
2019-02-05T10:30:55.058Z,4.67
2019-02-05T10:36:01.262Z,5.33
2019-02-05T10:41:04.664Z,5.03
2019-02-05T10:46:08.897Z,5.90
2019-02-05T10:51:12.690Z,4.90
2019-02-05T10:56:16.452Z,5.00
2019-02-05T11:01:20.300Z,5.00
2019-02-05T11:06:24.103Z,4.43
2019-02-05T11:11:28.264Z,4.27
2019-02-05T11:16:32.336Z,4.53
2019-02-05T11:21:36.442Z,4.63
2019-02-05T11:26:42.252Z,4.00
2019-02-05T11:31:50.476Z,4.23
2019-02-05T11:36:57.156Z,4.20
2019-02-05T11:42:08.605Z,4.50
2019-02-05T11:47:12.424Z,4.40
2019-02-05T11:52:16.171Z,4.63
2019-02-05T11:57:19.943Z,4.20
2019-02-05T12:02:24.154Z,4.90
2019-02-05T12:07:27.919Z,4.80
2019-02-05T12:12:31.756Z,4.43
2019-02-05T12:17:35.520Z,4.40
2019-02-05T12:22:39.378Z,4.30
2019-02-05T12:27:43.154Z,4.50
2019-02-05T12:32:47.005Z,4.53
2019-02-05T12:37:50.909Z,4.30
2019-02-05T12:42:55.010Z,3.83
2019-02-05T12:47:58.823Z,4.00
2019-02-05T12:53:02.732Z,3.80
2019-02-05T12:58:06.631Z,4.10
2019-02-05T13:03:11.191Z,4.03
2019-02-05T13:08:14.956Z,4.00
2019-02-05T13:13:21.566Z,4.03
2019-02-05T13:18:25.273Z,4.30
2019-02-05T13:23:29.132Z,4.40
2019-02-05T13:28:33.791Z,4.67
2019-02-05T13:33:37.593Z,4.27
2019-02-05T13:38:41.514Z,4.43
2019-02-05T13:43:47.761Z,5.10
2019-02-05T13:48:51.535Z,4.93
2019-02-05T13:53:55.309Z,4.73
2019-02-05T13:58:59.077Z,4.30
2019-02-05T14:04:02.994Z,4.30
2019-02-05T14:09:11.083Z,5.83
2019-02-05T14:14:14.861Z,7.43
2019-02-05T14:19:18.699Z,7.10
2019-02-05T14:24:22.492Z,8.37
2019-02-05T14:29:26.847Z,8.93
2019-02-05T14:34:31.084Z,8.33
2019-02-05T14:39:34.983Z,7.60
2019-02-05T14:44:38.780Z,10.00
2019-02-05T14:49:42.608Z,11.77
2019-02-05T14:54:46.547Z,11.43
2019-02-05T14:59:50.551Z,13.97
2019-02-05T15:04:54.663Z,13.30
2019-02-05T15:09:58.772Z,13.10
2019-02-05T15:15:03.353Z,13.20
2019-02-05T15:20:13.403Z,13.60
2019-02-05T15:25:17.145Z,12.17
2019-02-05T15:30:23.877Z,11.63
2019-02-05T15:35:28.050Z,9.30
2019-02-05T15:40:31.938Z,9.00
2019-02-05T15:45:35.861Z,7.87
2019-02-05T15:50:39.638Z,8.60
2019-02-05T15:55:43.529Z,8.40
2019-02-05T16:00:48.926Z,8.67
2019-02-05T16:06:00.275Z,8.20
2019-02-05T16:11:10.636Z,7.83
2019-02-05T16:16:17.974Z,7.43
2019-02-05T16:21:41.142Z,8.10
2019-02-05T16:26:47.709Z,7.10
2019-02-05T16:31:51.835Z,6.93
2019-02-05T16:36:57.291Z,6.70
2019-02-05T16:42:01.460Z,7.10
2019-02-05T16:47:05.289Z,6.80
2019-02-05T16:52:09.053Z,7.30
2019-02-05T16:57:12.897Z,8.10
2019-02-05T17:02:16.683Z,6.40
2019-02-05T17:07:20.845Z,7.77
2019-02-05T17:12:24.988Z,7.50
2019-02-05T17:17:40.791Z,7.93
2019-02-05T17:22:44.587Z,10.30
2019-02-05T17:27:48.759Z,11.50
2019-02-05T17:32:52.562Z,11.13
2019-02-05T17:37:56.441Z,11.07
2019-02-05T17:43:00.212Z,10.73
2019-02-05T17:48:06.922Z,10.87
2019-02-05T17:53:10.759Z,9.80
2019-02-05T17:58:14.501Z,10.40
2019-02-05T18:03:19.735Z,9.90
2019-02-05T18:08:23.556Z,10.30
2019-02-05T18:13:27.484Z,11.47
2019-02-05T18:18:31.882Z,11.70
2019-02-05T18:23:35.590Z,11.43
2019-02-05T18:28:39.788Z,11.60
2019-02-05T18:33:43.571Z,11.90
2019-02-05T18:38:47.484Z,12.87
2019-02-05T18:43:51.929Z,11.90
2019-02-05T18:49:04.650Z,13.07
2019-02-05T18:54:01.274Z,11.03
2019-02-05T18:59:05.044Z,12.17
2019-02-05T19:04:08.958Z,11.80
2019-02-05T19:09:16.031Z,12.53
2019-02-05T19:14:23.059Z,11.30
2019-02-05T19:19:25.366Z,12.47
2019-02-05T19:24:37.645Z,11.83
2019-02-05T19:29:41.858Z,12.53
2019-02-05T19:34:45.782Z,11.83
2019-02-05T19:39:49.917Z,11.50
2019-02-05T19:45:15.517Z,12.60
2019-02-05T19:50:19.207Z,12.60
2019-02-05T19:55:23.019Z,11.97
2019-02-05T20:00:27.168Z,12.07
2019-02-05T20:05:31.077Z,11.57
2019-02-05T20:10:34.980Z,10.60
2019-02-05T20:15:42.971Z,12.73
2019-02-05T20:20:47.274Z,13.07
2019-02-05T20:25:51.133Z,12.90
2019-02-05T20:30:54.989Z,14.00
2019-02-05T20:35:58.729Z,13.77
2019-02-05T20:41:02.633Z,12.20
2019-02-05T20:46:06.530Z,12.73
2019-02-05T20:51:10.795Z,12.83
2019-02-05T20:56:14.757Z,15.33
2019-02-05T21:01:19.209Z,14.47
2019-02-05T21:06:23.048Z,13.23
2019-02-05T21:11:27.056Z,13.40
2019-02-05T21:16:30.989Z,13.93
2019-02-05T21:21:34.821Z,14.67
2019-02-05T21:26:38.841Z,14.37
2019-02-05T21:31:44.400Z,14.23
2019-02-05T21:37:07.513Z,16.33
2019-02-05T21:42:11.314Z,16.30
2019-02-05T21:47:15.382Z,15.07
2019-02-05T21:52:19.395Z,15.37
2019-02-05T21:57:24.844Z,14.80
2019-02-05T22:02:29.085Z,14.10
2019-02-05T22:07:33.080Z,13.30
2019-02-05T22:12:36.837Z,15.17
2019-02-05T22:17:40.662Z,13.50
2019-02-05T22:22:44.483Z,16.47
2019-02-05T22:27:54.303Z,15.73
2019-02-05T22:32:58.141Z,17.53
2019-02-05T22:38:02.248Z,18.13
2019-02-05T22:43:06.242Z,18.27
2019-02-05T22:48:10.162Z,16.67
2019-02-05T22:53:14.834Z,16.00
2019-02-05T22:58:18.568Z,14.80
2019-02-05T23:03:33.970Z,13.77
2019-02-05T23:08:38.321Z,12.87
2019-02-05T23:13:42.120Z,12.33
2019-02-05T23:18:46.654Z,11.10
2019-02-05T23:23:50.603Z,11.40
2019-02-05T23:28:57.023Z,10.50
2019-02-05T23:34:01.603Z,10.17
2019-02-05T23:39:05.913Z,10.17
2019-02-05T23:44:09.680Z,9.20
2019-02-05T23:49:13.954Z,9.27
2019-02-05T23:54:17.740Z,8.63
2019-02-05T23:59:21.556Z,7.80
